sensor_id;sensor_type;location;lat;lon;timestamp;pressure;altitude;pressure_sealevel;temperature;humidity
10658;BME280;5377;43.276;26.930;2023-02-28T00:01:32;100041.44;;;6.89;100.00
10658;BME280;5377;43.276;26.930;2023-02-28T00:03:59;100014.97;;;6.62;100.00
10658;BME280;5377;43.276;26.930;2023-02-28T00:06:26;100012.09;;;6.81;100.00
10658;BME280;5377;43.276;26.930;2023-02-28T00:08:53;100010.69;;;6.69;100.00
10658;BME280;5377;43.276;26.930;2023-02-28T00:11:21;100002.38;;;6.72;100.00
10658;BME280;5377;43.276;26.930;2023-02-28T00:13:48;99999.22;;;6.69;100.00
10658;BME280;5377;43.276;26.930;2023-02-28T00:16:17;100009.72;;;6.52;100.00
10658;BME280;5377;43.276;26.930;2023-02-28T00:18:45;100045.94;;;6.63;100.00
10658;BME280;5377;43.276;26.930;2023-02-28T00:21:13;100020.09;;;6.81;100.00
10658;BME280;5377;43.276;26.930;2023-02-28T00:23:40;100023.63;;;6.90;100.00
10658;BME280;5377;43.276;26.930;2023-02-28T00:26:07;100025.38;;;6.99;100.00
10658;BME280;5377;43.276;26.930;2023-02-28T00:28:35;100024.47;;;6.91;100.00
10658;BME280;5377;43.276;26.930;2023-02-28T00:31:03;100023.38;;;7.01;100.00
10658;BME280;5377;43.276;26.930;2023-02-28T00:33:30;100036.63;;;6.93;100.00
10658;BME280;5377;43.276;26.930;2023-02-28T00:36:07;100042.53;;;7.05;100.00
10658;BME280;5377;43.276;26.930;2023-02-28T00:38:34;100033.03;;;7.02;100.00
10658;BME280;5377;43.276;26.930;2023-02-28T00:41:01;100032.72;;;7.05;100.00
10658;BME280;5377;43.276;26.930;2023-02-28T00:43:31;100032.72;;;7.05;100.00
10658;BME280;5377;43.276;26.930;2023-02-28T00:46:00;100031.72;;;7.06;100.00
10658;BME280;5377;43.276;26.930;2023-02-28T00:48:27;100028.44;;;7.12;100.00
10658;BME280;5377;43.276;26.930;2023-02-28T00:50:54;100018.97;;;7.18;100.00
10658;BME280;5377;43.276;26.930;2023-02-28T00:53:21;100008.75;;;7.05;100.00
10658;BME280;5377;43.276;26.930;2023-02-28T00:55:49;100021.47;;;7.19;100.00
10658;BME280;5377;43.276;26.930;2023-02-28T00:58:15;100024.31;;;7.26;100.00
10658;BME280;5377;43.276;26.930;2023-02-28T01:00:42;100032.13;;;6.94;100.00
10658;BME280;5377;43.276;26.930;2023-02-28T01:03:16;100033.25;;;7.09;100.00
10658;BME280;5377;43.276;26.930;2023-02-28T01:05:43;100028.44;;;7.12;100.00
10658;BME280;5377;43.276;26.930;2023-02-28T01:08:10;100033.25;;;7.09;100.00
10658;BME280;5377;43.276;26.930;2023-02-28T01:10:37;100037.19;;;6.97;100.00
10658;BME280;5377;43.276;26.930;2023-02-28T01:13:04;100020.13;;;6.89;100.00
10658;BME280;5377;43.276;26.930;2023-02-28T01:15:31;99994.34;;;6.90;100.00
10658;BME280;5377;43.276;26.930;2023-02-28T01:17:58;99983.00;;;6.88;100.00
10658;BME280;5377;43.276;26.930;2023-02-28T01:20:27;99995.72;;;6.68;100.00
10658;BME280;5377;43.276;26.930;2023-02-28T01:22:54;99999.38;;;6.67;100.00
10658;BME280;5377;43.276;26.930;2023-02-28T01:25:21;100015.34;;;6.67;100.00
10658;BME280;5377;43.276;26.930;2023-02-28T01:27:47;100032.16;;;6.68;100.00
10658;BME280;5377;43.276;26.930;2023-02-28T01:30:14;100037.38;;;6.77;100.00
10658;BME280;5377;43.276;26.930;2023-02-28T01:32:41;100028.53;;;6.77;100.00
10658;BME280;5377;43.276;26.930;2023-02-28T01:35:08;100017.84;;;6.69;100.00
10658;BME280;5377;43.276;26.930;2023-02-28T01:37:36;100026.63;;;6.61;100.00
10658;BME280;5377;43.276;26.930;2023-02-28T01:40:04;100034.19;;;6.74;100.00
10658;BME280;5377;43.276;26.930;2023-02-28T01:42:31;100027.66;;;6.68;100.00
10658;BME280;5377;43.276;26.930;2023-02-28T01:45:06;100017.31;;;6.65;100.00
10658;BME280;5377;43.276;26.930;2023-02-28T01:47:36;100032.34;;;6.74;100.00
10658;BME280;5377;43.276;26.930;2023-02-28T01:50:07;100034.88;;;6.76;100.00
10658;BME280;5377;43.276;26.930;2023-02-28T01:52:37;100040.28;;;6.66;100.00
10658;BME280;5377;43.276;26.930;2023-02-28T01:55:05;100040.09;;;6.60;100.00
10658;BME280;5377;43.276;26.930;2023-02-28T01:57:36;100024.09;;;6.60;100.00
10658;BME280;5377;43.276;26.930;2023-02-28T02:00:07;100028.00;;;6.47;100.00
10658;BME280;5377;43.276;26.930;2023-02-28T02:02:36;100032.78;;;6.44;100.00
10658;BME280;5377;43.276;26.930;2023-02-28T02:05:06;100026.53;;;6.53;100.00
10658;BME280;5377;43.276;26.930;2023-02-28T02:07:37;100035.53;;;6.34;100.00
10658;BME280;5377;43.276;26.930;2023-02-28T02:10:11;100027.72;;;6.33;100.00
10658;BME280;5377;43.276;26.930;2023-02-28T02:13:06;100021.84;;;6.47;100.00
10658;BME280;5377;43.276;26.930;2023-02-28T02:15:39;100022.50;;;6.49;100.00
10658;BME280;5377;43.276;26.930;2023-02-28T02:18:12;100025.78;;;6.43;100.00
10658;BME280;5377;43.276;26.930;2023-02-28T02:21:01;100042.59;;;6.43;100.00
10658;BME280;5377;43.276;26.930;2023-02-28T02:23:58;100048.75;;;6.44;100.00
10658;BME280;5377;43.276;26.930;2023-02-28T02:27:06;100039.09;;;6.43;100.00
10658;BME280;5377;43.276;26.930;2023-02-28T02:29:46;100043.47;;;6.26;100.00
10658;BME280;5377;43.276;26.930;2023-02-28T02:32:32;100044.44;;;6.25;100.00
10658;BME280;5377;43.276;26.930;2023-02-28T02:35:12;100039.97;;;6.25;100.00
10658;BME280;5377;43.276;26.930;2023-02-28T02:37:43;100039.72;;;6.19;100.00
10658;BME280;5377;43.276;26.930;2023-02-28T02:40:16;100041.63;;;6.09;100.00
10658;BME280;5377;43.276;26.930;2023-02-28T02:42:50;100047.31;;;6.14;100.00
10658;BME280;5377;43.276;26.930;2023-02-28T02:45:22;100047.00;;;6.17;100.00
10658;BME280;5377;43.276;26.930;2023-02-28T02:47:51;100053.53;;;6.22;100.00
10658;BME280;5377;43.276;26.930;2023-02-28T02:50:24;100050.97;;;6.31;100.00
10658;BME280;5377;43.276;26.930;2023-02-28T02:52:58;100046.84;;;6.18;100.00
10658;BME280;5377;43.276;26.930;2023-02-28T02:55:28;100053.94;;;6.10;100.00
10658;BME280;5377;43.276;26.930;2023-02-28T02:57:58;100056.66;;;6.18;100.00
10658;BME280;5377;43.276;26.930;2023-02-28T03:00:30;100053.25;;;6.25;100.00
10658;BME280;5377;43.276;26.930;2023-02-28T03:03:01;100049.84;;;6.33;100.00
10658;BME280;5377;43.276;26.930;2023-02-28T03:05:33;100032.09;;;6.42;100.00
10658;BME280;5377;43.276;26.930;2023-02-28T03:08:03;100037.94;;;6.45;100.00
10658;BME280;5377;43.276;26.930;2023-02-28T03:10:34;100058.31;;;6.54;100.00
10658;BME280;5377;43.276;26.930;2023-02-28T03:13:33;100050.94;;;6.48;100.00
10658;BME280;5377;43.276;26.930;2023-02-28T03:19:14;100056.66;;;6.18;100.00
10658;BME280;5377;43.276;26.930;2023-02-28T03:21:53;100054.00;;;6.18;100.00
10658;BME280;5377;43.276;26.930;2023-02-28T03:24:27;100055.22;;;6.23;100.00
10658;BME280;5377;43.276;26.930;2023-02-28T03:27:04;100055.38;;;6.40;100.00
10658;BME280;5377;43.276;26.930;2023-02-28T03:29:35;100065.25;;;6.30;100.00
10658;BME280;5377;43.276;26.930;2023-02-28T03:32:10;100051.72;;;6.05;100.00
10658;BME280;5377;43.276;26.930;2023-02-28T03:34:43;100071.16;;;6.23;100.00
10658;BME280;5377;43.276;26.930;2023-02-28T03:37:19;100070.88;;;6.44;100.00
10658;BME280;5377;43.276;26.930;2023-02-28T03:39:54;100066.59;;;6.51;100.00
10658;BME280;5377;43.276;26.930;2023-02-28T03:42:25;100067.38;;;6.44;100.00
10658;BME280;5377;43.276;26.930;2023-02-28T03:44:57;100072.91;;;6.50;100.00
10658;BME280;5377;43.276;26.930;2023-02-28T03:47:29;100067.00;;;6.39;100.00
10658;BME280;5377;43.276;26.930;2023-02-28T03:50:03;100068.59;;;6.49;100.00
10658;BME280;5377;43.276;26.930;2023-02-28T03:52:36;100083.03;;;6.47;100.00
10658;BME280;5377;43.276;26.930;2023-02-28T03:55:08;100083.81;;;6.39;100.00
10658;BME280;5377;43.276;26.930;2023-02-28T03:57:40;100082.88;;;6.48;100.00
10658;BME280;5377;43.276;26.930;2023-02-28T04:00:13;100090.25;;;6.54;100.00
10658;BME280;5377;43.276;26.930;2023-02-28T04:02:41;100086.44;;;6.57;100.00
10658;BME280;5377;43.276;26.930;2023-02-28T04:05:08;100094.91;;;6.52;100.00
10658;BME280;5377;43.276;26.930;2023-02-28T04:07:36;100099.09;;;6.37;100.00
10658;BME280;5377;43.276;26.930;2023-02-28T04:10:04;100099.03;;;6.29;100.00
10658;BME280;5377;43.276;26.930;2023-02-28T04:12:31;100108.41;;;6.23;100.00
10658;BME280;5377;43.276;26.930;2023-02-28T04:14:58;100099.59;;;6.05;100.00
10658;BME280;5377;43.276;26.930;2023-02-28T04:17:24;100109.94;;;6.08;100.00
10658;BME280;5377;43.276;26.930;2023-02-28T04:19:51;100099.66;;;6.13;100.00
10658;BME280;5377;43.276;26.930;2023-02-28T04:22:19;100103.28;;;6.40;100.00
10658;BME280;5377;43.276;26.930;2023-02-28T04:24:47;100096.94;;;6.23;100.00
10658;BME280;5377;43.276;26.930;2023-02-28T04:27:14;100091.34;;;6.26;100.00
10658;BME280;5377;43.276;26.930;2023-02-28T04:29:41;100091.38;;;6.16;100.00
10658;BME280;5377;43.276;26.930;2023-02-28T04:32:10;100095.25;;;6.04;100.00
10658;BME280;5377;43.276;26.930;2023-02-28T04:34:37;100095.25;;;6.04;100.00
10658;BME280;5377;43.276;26.930;2023-02-28T04:37:04;100105.66;;;5.88;100.00
10658;BME280;5377;43.276;26.930;2023-02-28T04:39:35;100098.53;;;5.88;100.00
10658;BME280;5377;43.276;26.930;2023-02-28T04:42:03;100094.41;;;5.76;100.00
10658;BME280;5377;43.276;26.930;2023-02-28T04:44:30;100117.75;;;5.92;100.00
10658;BME280;5377;43.276;26.930;2023-02-28T04:46:57;100121.06;;;5.84;100.00
10658;BME280;5377;43.276;26.930;2023-02-28T04:49:24;100119.53;;;5.64;100.00
10658;BME280;5377;43.276;26.930;2023-02-28T04:51:51;100120.00;;;5.77;100.00
10658;BME280;5377;43.276;26.930;2023-02-28T04:54:18;100132.16;;;5.80;100.00
10658;BME280;5377;43.276;26.930;2023-02-28T04:56:45;100128.88;;;5.68;100.00
10658;BME280;5377;43.276;26.930;2023-02-28T04:59:15;100132.81;;;5.64;100.00
10658;BME280;5377;43.276;26.930;2023-02-28T05:01:46;100131.09;;;5.73;100.00
10658;BME280;5377;43.276;26.930;2023-02-28T05:04:13;100123.75;;;5.57;100.00
10658;BME280;5377;43.276;26.930;2023-02-28T05:06:40;100129.47;;;5.52;100.00
10658;BME280;5377;43.276;26.930;2023-02-28T05:09:06;100132.34;;;5.31;100.00
10658;BME280;5377;43.276;26.930;2023-02-28T05:11:34;100141.50;;;5.56;100.00
10658;BME280;5377;43.276;26.930;2023-02-28T05:14:01;100142.00;;;5.70;100.00
10658;BME280;5377;43.276;26.930;2023-02-28T05:16:30;100140.47;;;5.67;100.00
10658;BME280;5377;43.276;26.930;2023-02-28T05:18:58;100148.13;;;5.80;100.00
10658;BME280;5377;43.276;26.930;2023-02-28T05:21:28;100150.28;;;5.67;100.00
10658;BME280;5377;43.276;26.930;2023-02-28T05:23:56;100166.03;;;5.78;100.00
10658;BME280;5377;43.276;26.930;2023-02-28T05:26:23;100170.22;;;5.80;100.00
10658;BME280;5377;43.276;26.930;2023-02-28T05:28:50;100174.94;;;5.86;100.00
10658;BME280;5377;43.276;26.930;2023-02-28T05:31:17;100161.09;;;5.83;100.00
10658;BME280;5377;43.276;26.930;2023-02-28T05:33:46;100178.00;;;6.01;100.00
10658;BME280;5377;43.276;26.930;2023-02-28T05:36:13;100157.84;;;5.99;100.00
10658;BME280;5377;43.276;26.930;2023-02-28T05:38:40;100164.25;;;6.06;100.00
10658;BME280;5377;43.276;26.930;2023-02-28T05:41:07;100168.88;;;6.04;100.00
10658;BME280;5377;43.276;26.930;2023-02-28T05:43:35;100175.97;;;6.13;100.00
10658;BME280;5377;43.276;26.930;2023-02-28T05:46:04;100163.66;;;6.12;100.00
10658;BME280;5377;43.276;26.930;2023-02-28T05:48:31;100178.19;;;6.17;100.00
10658;BME280;5377;43.276;26.930;2023-02-28T05:50:59;100173.59;;;6.10;100.00
10658;BME280;5377;43.276;26.930;2023-02-28T05:53:28;100177.75;;;5.85;100.00
10658;BME280;5377;43.276;26.930;2023-02-28T05:55:55;100177.06;;;5.83;100.00
10658;BME280;5377;43.276;26.930;2023-02-28T05:58:22;100192.69;;;5.58;100.00
10658;BME280;5377;43.276;26.930;2023-02-28T06:00:50;100188.44;;;5.75;100.00
10658;BME280;5377;43.276;26.930;2023-02-28T06:03:17;100189.75;;;5.89;100.00
10658;BME280;5377;43.276;26.930;2023-02-28T06:05:44;100192.66;;;5.68;100.00
10658;BME280;5377;43.276;26.930;2023-02-28T06:08:12;100194.34;;;5.69;100.00
10658;BME280;5377;43.276;26.930;2023-02-28T06:10:39;100199.53;;;5.61;100.00
10658;BME280;5377;43.276;26.930;2023-02-28T06:13:06;100200.22;;;5.53;100.00
10658;BME280;5377;43.276;26.930;2023-02-28T06:15:33;100196.28;;;5.67;100.00
10658;BME280;5377;43.276;26.930;2023-02-28T06:18:00;100204.31;;;5.57;100.00
10658;BME280;5377;43.276;26.930;2023-02-28T06:20:27;100196.59;;;5.64;100.00
10658;BME280;5377;43.276;26.930;2023-02-28T06:22:55;100186.69;;;5.56;100.00
10658;BME280;5377;43.276;26.930;2023-02-28T06:25:25;100198.97;;;5.67;100.00
10658;BME280;5377;43.276;26.930;2023-02-28T06:27:53;100196.59;;;5.64;100.00
10658;BME280;5377;43.276;26.930;2023-02-28T06:30:20;100192.91;;;5.75;100.00
10658;BME280;5377;43.276;26.930;2023-02-28T06:32:52;100191.78;;;5.77;100.00
10658;BME280;5377;43.276;26.930;2023-02-28T06:35:19;100196.34;;;5.57;100.00
10658;BME280;5377;43.276;26.930;2023-02-28T06:37:45;100192.81;;;5.67;100.00
10658;BME280;5377;43.276;26.930;2023-02-28T06:40:13;100195.47;;;5.67;100.00
10658;BME280;5377;43.276;26.930;2023-02-28T06:42:42;100192.03;;;5.84;100.00
10658;BME280;5377;43.276;26.930;2023-02-28T06:45:10;100186.47;;;5.77;100.00
10658;BME280;5377;43.276;26.930;2023-02-28T06:47:37;100202.91;;;6.00;100.00
10658;BME280;5377;43.276;26.930;2023-02-28T06:50:06;100183.38;;;5.91;100.00
10658;BME280;5377;43.276;26.930;2023-02-28T06:52:33;100202.31;;;6.06;100.00
10658;BME280;5377;43.276;26.930;2023-02-28T06:55:01;100178.72;;;5.56;100.00
10658;BME280;5377;43.276;26.930;2023-02-28T06:57:29;100199.91;;;5.76;100.00
10658;BME280;5377;43.276;26.930;2023-02-28T06:59:59;100194.38;;;5.59;100.00
10658;BME280;5377;43.276;26.930;2023-02-28T07:02:27;100193.06;;;5.73;100.00
10658;BME280;5377;43.276;26.930;2023-02-28T07:04:53;100193.78;;;5.66;100.00
10658;BME280;5377;43.276;26.930;2023-02-28T07:07:20;100192.41;;;5.61;100.00
10658;BME280;5377;43.276;26.930;2023-02-28T07:09:47;100187.69;;;5.83;100.00
10658;BME280;5377;43.276;26.930;2023-02-28T07:12:14;100191.75;;;5.97;100.00
10658;BME280;5377;43.276;26.930;2023-02-28T07:14:41;100176.06;;;5.84;100.00
10658;BME280;5377;43.276;26.930;2023-02-28T07:17:09;100185.88;;;5.93;100.00
10658;BME280;5377;43.276;26.930;2023-02-28T07:19:37;100194.84;;;5.92;100.00
10658;BME280;5377;43.276;26.930;2023-02-28T07:22:04;100185.91;;;6.11;100.00
10658;BME280;5377;43.276;26.930;2023-02-28T07:24:31;100189.53;;;5.92;100.00
10658;BME280;5377;43.276;26.930;2023-02-28T07:26:58;100196.22;;;5.96;100.00
10658;BME280;5377;43.276;26.930;2023-02-28T07:29:26;100180.16;;;5.78;100.00
10658;BME280;5377;43.276;26.930;2023-02-28T07:31:53;100200.72;;;5.76;100.00
10658;BME280;5377;43.276;26.930;2023-02-28T07:34:22;100199.31;;;5.82;100.00
10658;BME280;5377;43.276;26.930;2023-02-28T07:36:49;100191.19;;;5.83;100.00
10658;BME280;5377;43.276;26.930;2023-02-28T07:39:19;100196.25;;;5.77;100.00
10658;BME280;5377;43.276;26.930;2023-02-28T07:41:45;100193.56;;;5.96;100.00
10658;BME280;5377;43.276;26.930;2023-02-28T07:44:12;100199.28;;;6.01;100.00
10658;BME280;5377;43.276;26.930;2023-02-28T07:46:39;100194.13;;;6.17;100.00
10658;BME280;5377;43.276;26.930;2023-02-28T07:49:06;100198.59;;;6.27;100.00
10658;BME280;5377;43.276;26.930;2023-02-28T07:51:34;100190.47;;;6.28;100.00
10658;BME280;5377;43.276;26.930;2023-02-28T07:54:01;100190.03;;;6.23;100.00
10658;BME280;5377;43.276;26.930;2023-02-28T07:56:28;100192.06;;;6.39;100.00
10658;BME280;5377;43.276;26.930;2023-02-28T07:58:55;100193.97;;;6.46;100.00
10658;BME280;5377;43.276;26.930;2023-02-28T08:01:22;100201.19;;;6.36;100.00
10658;BME280;5377;43.276;26.930;2023-02-28T08:03:49;100195.13;;;6.44;100.00
10658;BME280;5377;43.276;26.930;2023-02-28T08:06:17;100192.34;;;6.63;100.00
10658;BME280;5377;43.276;26.930;2023-02-28T08:08:46;100196.97;;;6.61;100.00
10658;BME280;5377;43.276;26.930;2023-02-28T08:11:13;100183.31;;;6.46;100.00
10658;BME280;5377;43.276;26.930;2023-02-28T08:13:39;100200.31;;;6.63;100.00
10658;BME280;5377;43.276;26.930;2023-02-28T08:16:07;100190.84;;;6.51;100.00
10658;BME280;5377;43.276;26.930;2023-02-28T08:18:34;100188.81;;;6.45;100.00
10658;BME280;5377;43.276;26.930;2023-02-28T08:21:05;100187.88;;;6.54;100.00
10658;BME280;5377;43.276;26.930;2023-02-28T08:23:32;100182.00;;;6.60;100.00
10658;BME280;5377;43.276;26.930;2023-02-28T08:26:02;100184.56;;;6.70;100.00
10658;BME280;5377;43.276;26.930;2023-02-28T08:28:29;100187.09;;;6.71;100.00
10658;BME280;5377;43.276;26.930;2023-02-28T08:30:56;100193.78;;;6.75;100.00
10658;BME280;5377;43.276;26.930;2023-02-28T08:33:24;100195.88;;;6.89;100.00
10658;BME280;5377;43.276;26.930;2023-02-28T08:35:52;100195.00;;;6.99;100.00
10658;BME280;5377;43.276;26.930;2023-02-28T08:38:20;100185.19;;;6.99;100.00
10658;BME280;5377;43.276;26.930;2023-02-28T08:40:47;100182.72;;;6.88;100.00
10658;BME280;5377;43.276;26.930;2023-02-28T08:43:15;100186.78;;;6.74;100.00
10658;BME280;5377;43.276;26.930;2023-02-28T08:45:42;100192.38;;;6.89;100.00
10658;BME280;5377;43.276;26.930;2023-02-28T08:48:09;100201.00;;;7.01;100.00
10658;BME280;5377;43.276;26.930;2023-02-28T08:50:36;100203.56;;;6.93;100.00
10658;BME280;5377;43.276;26.930;2023-02-28T08:53:02;100195.88;;;6.89;100.00
10658;BME280;5377;43.276;26.930;2023-02-28T08:55:29;100196.88;;;6.88;100.00
10658;BME280;5377;43.276;26.930;2023-02-28T08:57:56;100189.59;;;6.73;100.00
10658;BME280;5377;43.276;26.930;2023-02-28T09:00:25;100199.19;;;6.66;100.00
10658;BME280;5377;43.276;26.930;2023-02-28T09:02:52;100203.38;;;6.68;100.00
10658;BME280;5377;43.276;26.930;2023-02-28T09:05:20;100205.09;;;6.77;100.00
10658;BME280;5377;43.276;26.930;2023-02-28T09:07:46;100202.53;;;6.68;100.00
10658;BME280;5377;43.276;26.930;2023-02-28T09:10:13;100211.50;;;6.67;100.00
10658;BME280;5377;43.276;26.930;2023-02-28T09:12:40;100200.53;;;6.87;100.00
10658;BME280;5377;43.276;26.930;2023-02-28T09:15:08;100190.34;;;6.65;100.00
10658;BME280;5377;43.276;26.930;2023-02-28T09:17:36;100199.56;;;6.71;100.00
10658;BME280;5377;43.276;26.930;2023-02-28T09:20:04;100202.13;;;6.80;100.00
10658;BME280;5377;43.276;26.930;2023-02-28T09:22:30;100197.13;;;6.77;100.00
10658;BME280;5377;43.276;26.930;2023-02-28T09:24:57;100190.25;;;6.93;100.00
10658;BME280;5377;43.276;26.930;2023-02-28T09:27:24;100203.50;;;6.84;100.00
10658;BME280;5377;43.276;26.930;2023-02-28T09:29:51;100200.16;;;6.82;100.00
10658;BME280;5377;43.276;26.930;2023-02-28T09:32:18;100200.78;;;6.76;100.00
10658;BME280;5377;43.276;26.930;2023-02-28T09:34:46;100209.69;;;6.67;100.00
10658;BME280;5377;43.276;26.930;2023-02-28T09:37:13;100213.69;;;6.71;100.00
10658;BME280;5377;43.276;26.930;2023-02-28T09:39:40;100213.94;;;6.60;100.00
10658;BME280;5377;43.276;26.930;2023-02-28T09:42:18;100220.22;;;6.59;100.00
10658;BME280;5377;43.276;26.930;2023-02-28T09:44:48;100217.69;;;6.57;100.00
10658;BME280;5377;43.276;26.930;2023-02-28T09:47:25;100222.66;;;6.52;100.00
10658;BME280;5377;43.276;26.930;2023-02-28T09:49:55;100220.06;;;6.43;100.00
10658;BME280;5377;43.276;26.930;2023-02-28T09:52:29;100220.66;;;6.37;100.00
10658;BME280;5377;43.276;26.930;2023-02-28T09:55:00;100226.13;;;6.35;100.00
10658;BME280;5377;43.276;26.930;2023-02-28T09:57:32;100228.09;;;6.33;100.00
10658;BME280;5377;43.276;26.930;2023-02-28T10:00:07;100219.19;;;6.24;100.00
10658;BME280;5377;43.276;26.930;2023-02-28T10:02:52;100217.44;;;6.33;100.00
10658;BME280;5377;43.276;26.930;2023-02-28T10:05:26;100220.88;;;6.25;100.00
10658;BME280;5377;43.276;26.930;2023-02-28T10:08:02;100228.53;;;6.29;100.00
10658;BME280;5377;43.276;26.930;2023-02-28T10:10:37;100224.38;;;6.26;100.00
10658;BME280;5377;43.276;26.930;2023-02-28T10:13:11;100216.09;;;6.19;100.00
10658;BME280;5377;43.276;26.930;2023-02-28T10:15:39;100216.78;;;6.21;100.00
10658;BME280;5377;43.276;26.930;2023-02-28T10:18:14;100206.91;;;6.14;100.00
10658;BME280;5377;43.276;26.930;2023-02-28T10:20:45;100227.03;;;6.16;100.00
10658;BME280;5377;43.276;26.930;2023-02-28T10:23:17;100214.03;;;6.13;100.00
10658;BME280;5377;43.276;26.930;2023-02-28T10:25:49;100218.19;;;6.25;100.00
10658;BME280;5377;43.276;26.930;2023-02-28T10:28:19;100215.66;;;6.24;100.00
10658;BME280;5377;43.276;26.930;2023-02-28T10:30:48;100204.69;;;6.37;100.00
10658;BME280;5377;43.276;26.930;2023-02-28T10:33:19;100207.19;;;6.38;100.00
10658;BME280;5377;43.276;26.930;2023-02-28T10:35:49;100211.09;;;6.44;100.00
10658;BME280;5377;43.276;26.930;2023-02-28T10:38:18;100207.34;;;6.54;100.00
10658;BME280;5377;43.276;26.930;2023-02-28T10:40:46;100201.81;;;6.48;100.00
10658;BME280;5377;43.276;26.930;2023-02-28T10:43:23;100206.97;;;6.49;100.00
10658;BME280;5377;43.276;26.930;2023-02-28T10:46:00;100196.88;;;6.53;100.00
10658;BME280;5377;43.276;26.930;2023-02-28T10:48:37;100190.03;;;6.50;100.00
10658;BME280;5377;43.276;26.930;2023-02-28T10:51:07;100176.78;;;6.41;100.00
10658;BME280;5377;43.276;26.930;2023-02-28T10:53:38;100176.34;;;6.45;100.00
10658;BME280;5377;43.276;26.930;2023-02-28T10:56:15;100189.63;;;6.28;100.00
10658;BME280;5377;43.276;26.930;2023-02-28T10:58:48;100182.50;;;6.46;100.00
10658;BME280;5377;43.276;26.930;2023-02-28T11:01:17;100160.06;;;6.48;100.00
10658;BME280;5377;43.276;26.930;2023-02-28T11:03:44;100162.81;;;6.39;100.00
10658;BME280;5377;43.276;26.930;2023-02-28T11:06:18;100161.50;;;6.43;100.00
10658;BME280;5377;43.276;26.930;2023-02-28T11:08:51;100144.47;;;6.36;100.00
10658;BME280;5377;43.276;26.930;2023-02-28T11:11:18;100154.59;;;6.32;100.00
10658;BME280;5377;43.276;26.930;2023-02-28T11:13:47;100161.19;;;6.46;100.00
10658;BME280;5377;43.276;26.930;2023-02-28T11:16:16;100161.13;;;6.38;100.00
10658;BME280;5377;43.276;26.930;2023-02-28T11:18:47;100156.25;;;6.51;100.00
10658;BME280;5377;43.276;26.930;2023-02-28T11:21:20;100151.56;;;6.63;100.00
10658;BME280;5377;43.276;26.930;2023-02-28T11:23:51;100145.69;;;6.59;100.00
10658;BME280;5377;43.276;26.930;2023-02-28T11:26:38;100140.34;;;6.59;100.00
10658;BME280;5377;43.276;26.930;2023-02-28T11:29:23;100139.25;;;6.62;100.00
10658;BME280;5377;43.276;26.930;2023-02-28T11:32:07;100124.47;;;6.32;100.00
10658;BME280;5377;43.276;26.930;2023-02-28T11:34:38;100139.38;;;6.24;100.00
10658;BME280;5377;43.276;26.930;2023-02-28T11:37:11;100134.13;;;6.33;100.00
10658;BME280;5377;43.276;26.930;2023-02-28T11:39:39;100133.94;;;6.16;100.00
10658;BME280;5377;43.276;26.930;2023-02-28T11:45:15;100121.19;;;6.20;100.00
10658;BME280;5377;43.276;26.930;2023-02-28T11:47:48;100146.44;;;6.34;100.00
10658;BME280;5377;43.276;26.930;2023-02-28T11:50:40;100141.63;;;6.19;100.00
10658;BME280;5377;43.276;26.930;2023-02-28T11:53:18;100134.75;;;6.27;100.00
10658;BME280;5377;43.276;26.930;2023-02-28T11:55:52;100142.72;;;6.27;100.00
10658;BME280;5377;43.276;26.930;2023-02-28T11:58:28;100131.41;;;6.24;100.00
10658;BME280;5377;43.276;26.930;2023-02-28T12:01:07;100145.38;;;6.27;100.00
10658;BME280;5377;43.276;26.930;2023-02-28T12:03:43;100140.44;;;6.32;100.00
10658;BME280;5377;43.276;26.930;2023-02-28T12:06:18;100143.50;;;6.37;100.00
10658;BME280;5377;43.276;26.930;2023-02-28T12:08:56;100147.06;;;6.28;100.00
10658;BME280;5377;43.276;26.930;2023-02-28T12:11:34;100147.97;;;6.36;100.00
10658;BME280;5377;43.276;26.930;2023-02-28T12:17:01;100145.38;;;6.44;100.00
10658;BME280;5377;43.276;26.930;2023-02-28T12:19:38;100138.09;;;6.29;100.00
10658;BME280;5377;43.276;26.930;2023-02-28T12:22:25;100138.47;;;6.34;100.00
10658;BME280;5377;43.276;26.930;2023-02-28T12:25:21;100147.28;;;6.34;100.00
10658;BME280;5377;43.276;26.930;2023-02-28T12:27:51;100152.69;;;6.24;100.00
10658;BME280;5377;43.276;26.930;2023-02-28T12:30:22;100158.53;;;6.28;100.00
10658;BME280;5377;43.276;26.930;2023-02-28T12:32:54;100148.34;;;6.41;100.00
10658;BME280;5377;43.276;26.930;2023-02-28T12:35:25;100147.28;;;6.34;100.00
10658;BME280;5377;43.276;26.930;2023-02-28T12:37:57;100141.50;;;6.39;100.00
10658;BME280;5377;43.276;26.930;2023-02-28T12:40:32;100136.94;;;6.49;100.00
10658;BME280;5377;43.276;26.930;2023-02-28T12:43:04;100137.84;;;6.40;100.00
10658;BME280;5377;43.276;26.930;2023-02-28T12:45:40;100126.91;;;6.43;100.00
10658;BME280;5377;43.276;26.930;2023-02-28T12:48:10;100130.41;;;6.43;100.00
10658;BME280;5377;43.276;26.930;2023-02-28T12:50:40;100132.00;;;6.36;100.00
10658;BME280;5377;43.276;26.930;2023-02-28T12:53:11;100129.25;;;6.46;100.00
10658;BME280;5377;43.276;26.930;2023-02-28T12:55:46;100123.78;;;6.47;100.00
10658;BME280;5377;43.276;26.930;2023-02-28T12:58:20;100123.09;;;6.45;100.00
10658;BME280;5377;43.276;26.930;2023-02-28T13:01:20;100118.53;;;6.20;100.00
10658;BME280;5377;43.276;26.930;2023-02-28T13:04:24;100131.66;;;6.21;100.00
10658;BME280;5377;43.276;26.930;2023-02-28T13:07:08;100108.41;;;6.23;100.00
10658;BME280;5377;43.276;26.930;2023-02-28T13:09:37;100078.00;;;6.08;100.00
10658;BME280;5377;43.276;26.930;2023-02-28T13:12:14;100123.22;;;6.08;100.00
10658;BME280;5377;43.276;26.930;2023-02-28T13:14:42;100121.03;;;6.21;100.00
10658;BME280;5377;43.276;26.930;2023-02-28T13:17:14;100128.63;;;6.16;100.00